Mgic Investment Corp (MTG) Latest Bloomsberg Price


Mffais Ranking #2502 Overall / #44 Industry
Industry: Mortgage Finance

Number of Companies: 202 (Ranking #815 Overall/#6 Industry)
Inflow: $ 98,178 (K) (Ranking #969 Overall/#9 Industry)
Outflow: $ -203,619 (K)
Mffais Flow: $ -105,441 (K) (Ranking #2502 Overall/#44 Industry)


Receive a FREE weekly executive review of stocks moving into the top 10, taking the top industy spot or moving up within their industry. Sent directly to your Inbox every Saturday. Sign up today and get last week's review immediately sent to you.

We value and respect your privacy. Please read our Terms and Conditions which states our firm commitment to your privacy. Your email address will not be shared with a third party, nor will it be sold or used for purposes other than subscription for the weekly review.

Owner CPOR Shares Action Qty Chg Invested (K) Total Current Value (K)
Investment Counselors Of Maryland Llc 2016-09-30 1,976,110 New Holding 1,976,110 $ 14,089 $ 14,089
Teachers Advisors Inc 2016-09-30 2,387,069 Added More 1,817,926 $ 12,961 $ 17,019
Everpoint Asset Management Llc 2016-09-30 1,020,000 New Holding 1,020,000 $ 7,272 $ 7,272
Lombardia Capital Partners Llc 2016-09-30 2,169,436 Added More 769,064 $ 5,483 $ 15,468
Walleye Trading Llc 2016-09-30 668,540 Added More 635,377 $ 4,530 $ 4,766
Adirondack Research Management Inc 2016-09-30 561,400 New Holding 561,400 $ 4,002 $ 4,002
Mark Asset Management Corp 2016-09-30 474,244 New Holding 474,244 $ 3,381 $ 3,381
Panagora Asset Management Inc 2016-09-30 552,854 Added More 437,597 $ 3,120 $ 3,941
Brant Point Investment Management Llc 2016-09-30 433,600 New Holding 433,600 $ 3,091 $ 3,091
Ahl Partners Llp 2016-09-30 427,127 New Holding 427,127 $ 3,045 $ 3,045
Broadview Advisors Llc 2016-09-30 2,706,625 Added More 362,150 $ 2,582 $ 19,298
Parametric Portfolio Associates Llc 2016-09-30 513,162 Added More 287,952 $ 2,053 $ 3,658
Teewinot Capital Advisers L L C 2016-09-30 262,900 New Holding 262,900 $ 1,874 $ 1,874
Chicago Equity Partners Llc 2016-09-30 261,460 New Holding 261,460 $ 1,864 $ 1,864
Bluemountain Capital Management Llc 2016-09-30 271,321 Added More 239,777 $ 1,709 $ 1,934
Gam Holding Ag 2016-09-30 321,777 Added More 211,522 $ 1,508 $ 2,294
Dupont Capital Management Corp 2016-09-30 205,234 New Holding 205,234 $ 1,463 $ 1,463
Secor Capital Advisors Lp 2016-09-30 200,870 New Holding 200,870 $ 1,432 $ 1,432
Meeder Asset Management Inc 2016-09-30 196,831 New Holding 196,831 $ 1,403 $ 1,403
Dimensional Fund Advisors Lp 2016-09-30 2,744,147 Added More 195,193 $ 1,391 $ 19,565
Cipher Capital Lp 2016-09-30 704,119 Added More 192,251 $ 1,370 $ 5,020
Northern Trust Corp 2016-09-30 5,791,787 Added More 191,147 $ 1,362 $ 41,295
Nfc Investments Llc 2016-09-30 1,630,410 Added More 160,500 $ 1,144 $ 11,624
Clarivest Asset Management Llc 2016-09-30 159,700 New Holding 159,700 $ 1,138 $ 1,138
Quantitative Investment Management Llc 2016-09-30 149,600 New Holding 149,600 $ 1,066 $ 1,066
Raymond James Associates 2016-09-30 168,603 Added More 134,656 $ 960 $ 1,202
Royce Associates Lp 2016-09-30 636,685 Added More 132,500 $ 944 $ 4,539
New York State Common Retirement Fund 2016-09-30 647,967 Added More 124,966 $ 891 $ 4,620
Heartland Advisors Inc 2016-09-30 1,583,250 Added More 123,150 $ 878 $ 11,288
Quantbot Technologies Lp 2016-09-30 106,355 New Holding 106,355 $ 758 $ 758
Quadrature Capital Ltd 2016-09-30 84,662 New Holding 84,662 $ 603 $ 603
Engineers Gate Manager Lp 2016-09-30 144,238 Added More 80,998 $ 577 $ 1,028
Sadoff Investment Management Llc 2016-09-30 2,338,800 Added More 78,500 $ 559 $ 16,675
Blue Rock Advisors Llc 2016-09-30 75,502 New Holding 75,502 $ 538 $ 538
Legg Mason Asset Management Japan Co Ltd 2016-09-30 146,500 Added More 55,500 $ 395 $ 1,044
Teachers Retirement System Of The State Of Kentucky 2016-09-30 132,137 Added More 53,200 $ 379 $ 942
Alps Advisors Inc 2016-09-30 51,862 New Holding 51,862 $ 369 $ 369
Ancora Advisors Llc 2016-09-30 50,000 New Holding 50,000 $ 356 $ 356
Advent Capital Management De 2016-09-30 50,000 New Holding 50,000 $ 356 $ 356
Dynamic Technology Lab Private Ltd 2016-09-30 49,659 New Holding 49,659 $ 354 $ 354
First Midwest Bank Trust Division 2016-09-30 49,462 New Holding 49,462 $ 352 $ 352
Integral Derivatives Llc 2016-09-30 46,000 New Holding 46,000 $ 327 $ 327
Clinton Group Inc 2016-09-30 62,559 Added More 42,166 $ 300 $ 446
Paradigm Capital Management Inc Ny 2016-09-30 41,100 New Holding 41,100 $ 293 $ 293
Bayesian Capital Management Lp 2016-09-30 39,600 New Holding 39,600 $ 282 $ 282
Boothbay Fund Management Llc 2016-09-30 58,034 Added More 35,076 $ 250 $ 413
Peak6 Investments L P 2016-09-30 642,200 Added More 33,300 $ 237 $ 4,578
Dynamic Capital Management Ltd 2016-09-30 29,921 New Holding 29,921 $ 213 $ 213
Schonfeld Strategic Advisors Llc 2016-09-30 28,406 New Holding 28,406 $ 202 $ 202
Cutler Group Lp 2016-09-30 28,000 New Holding 28,000 $ 199 $ 199
Lmm Llc 2016-09-30 8,132,900 Added More 26,550 $ 189 $ 57,987
Strs Ohio 2016-09-30 66,500 Added More 22,900 $ 163 $ 474
Landscape Capital Management L L C 2016-09-30 21,409 New Holding 21,409 $ 152 $ 152
Qcm Cayman Ltd 2016-09-30 20,935 New Holding 20,935 $ 149 $ 149
Reliance Trust Co Of Delaware 2016-09-30 15,090 New Holding 15,090 $ 107 $ 107
World Asset Management Inc 2016-09-30 13,465 New Holding 13,465 $ 96 $ 96
Aperio Group Llc 2016-09-30 40,408 Added More 12,827 $ 91 $ 288
Stifel Financial Corp 2016-09-30 12,372 New Holding 12,372 $ 88 $ 88
Piedmont Investment Advisors Llc 2016-09-30 12,243 Added More 12,200 $ 86 $ 87
Acrospire Investment Management Llc 2016-09-30 11,131 New Holding 11,131 $ 79 $ 79
Nationwide Fund Advisors 2016-09-30 277,340 Added More 10,921 $ 77 $ 1,977
Quantitative Systematic Strategies Llc 2016-09-30 141,341 Added More 10,329 $ 73 $ 1,007
Blackrock Inc 2016-09-30 129,365 Added More 9,968 $ 71 $ 922
Rhumbline Advisers 2016-09-30 462,879 Added More 9,488 $ 67 $ 3,300
Oarsman Capital Inc 2016-09-30 518,442 Added More 8,575 $ 61 $ 3,696
Springbok Capital Management Llc 2016-09-30 7,883 Added More 7,783 $ 55 $ 56
Spot Trading L L C 2016-09-30 212,581 Added More 7,700 $ 54 $ 1,515
Point72 Asia Hong Kong Ltd 2016-09-30 7,100 New Holding 7,100 $ 50 $ 50
Cantab Capital Partners Llp 2016-09-30 6,746 New Holding 6,746 $ 48 $ 48
California State Teachers Retirement System 2016-09-30 723,380 Added More 6,500 $ 46 $ 5,157
Invictus Rg 2016-09-30 13,109 Added More 5,702 $ 40 $ 93
Kcg Holdings Inc 2016-09-30 112,276 Added More 5,206 $ 37 $ 800
Eagleclaw Capital Managment Llc 2016-09-30 47,300 Added More 5,200 $ 37 $ 337
Ladenburg Thalmann Financial Services Inc 2016-09-30 35,689 Added More 4,747 $ 33 $ 254
Jacobus Wealth Management Inc 2016-09-30 30,460 Added More 4,700 $ 33 $ 217
Meridian Investment Counsel Inc 2016-09-30 54,500 Added More 4,500 $ 32 $ 388
Pacad Investment Ltd 2016-09-30 4,400 New Holding 4,400 $ 31 $ 31
Highlander Capital Management Llc 2016-09-30 149,900 Added More 4,050 $ 28 $ 1,068
Profund Advisors Llc 2016-09-30 17,053 Added More 3,801 $ 27 $ 121
Blackrock Investment Management Llc 2016-09-30 1,412,579 Added More 3,538 $ 25 $ 10,071
Financial Architects Inc 2016-09-30 3,200 New Holding 3,200 $ 22 $ 22
Cim Investment Mangement Inc 2016-09-30 77,525 Added More 2,910 $ 20 $ 552
Gsa Capital Partners Llp 2016-09-30 25,031 Added More 2,233 $ 15 $ 178
Pacer Advisors Inc 2016-09-30 19,492 Added More 1,639 $ 11 $ 138
Zurcher Kantonalbank Zurich Cantonalbank 2016-09-30 11,697 Added More 1,351 $ 9 $ 83
First Personal Financial Services 2016-09-30 2,714 Added More 1,206 $ 8 $ 19
Guggenheim Capital Llc 2016-09-30 58,798 Added More 1,178 $ 8 $ 419
Quadrant Capital Group Llc 2016-09-30 779 New Holding 779 $ 5 $ 5
Creative Planning 2016-09-30 14,325 Added More 457 $ 3 $ 102
Ls Investment Advisors Llc 2016-09-30 1,400 Added More 400 $ 2 $ 9
American International Group Inc 2016-09-30 196,834 Added More 302 $ 2 $ 1,403
Ifp Advisors Inc 2016-09-30 3,162 Added More 162 $ 1 $ 22
Chickasaw Capital Management Llc 2016-09-30 21,500 No Change 0 $ 0 $ 153
Klcm Advisors Inc 2016-09-30 469,146 No Change 0 $ 0 $ 3,345
Legacy Capital Partners Inc 2016-09-30 16,820 No Change 0 $ 0 $ 119
Foothills Asset Management Ltd 2016-09-30 12,269 No Change 0 $ 0 $ 87
Johnson Financial Group Inc 2016-09-30 5,456 No Change 0 $ 0 $ 38
Gateway Investment Advisers Llc 2016-09-30 116,659 No Change 0 $ 0 $ 831
Silvercrest Asset Management Group Llc 2016-09-30 76,390 No Change 0 $ 0 $ 544
Odey Asset Management Group Ltd 2016-09-30 5,700 No Change 0 $ 0 $ 40
Nuveen Asset Management Llc 2016-09-30 21,966 No Change 0 $ 0 $ 156
Permit Capital Llc 2016-09-30 437,500 No Change 0 $ 0 $ 3,119
Cibc Asset Management Inc 2016-09-30 11,036 No Change 0 $ 0 $ 78
Shelton Capital Management 2016-09-30 28,000 No Change 0 $ 0 $ 199
Oaktree Capital Management Lp 2016-09-30 9,030,000 No Change 0 $ 0 $ 64,383
Carl Domino Inc 2016-09-30 87,000 No Change 0 $ 0 $ 620
Advisory Services Network Llc 2016-09-30 3,600 No Change 0 $ 0 $ 25
Nisa Investment Advisors Llc 2016-09-30 4,500 No Change 0 $ 0 $ 32
Kazazian Asset Management Llc 2016-09-30 37,565 No Change 0 $ 0 $ 267
Sva Plumb Wealth Management Llc 2016-09-30 10,000 No Change 0 $ 0 $ 71
State Of Tennessee Treasury Department 2016-09-30 20,000 No Change 0 $ 0 $ 142
Mackenzie Financial Corp 2016-09-30 74,071 No Change 0 $ 0 $ 528
Green Square Capital Llc 2016-09-30 300,894 No Change 0 $ 0 $ 2,145
Stonehill Capital Management Llc 2016-09-30 26,772 No Change 0 $ 0 $ 190
Bronfman E L Rothschild L P 2016-09-30 427 No Change 0 $ 0 $ 3
Sheaff Brock Investment Advisors Llc 2016-09-30 101,500 No Change 0 $ 0 $ 723
Westport Asset Management Inc 2016-06-30 475,000 No Change 0 $ 0 $ 2,826
Lasry Marc 2016-09-30 3,092,962 No Change 0 $ 0 $ 22,052
Sei Investments Co 2016-09-30 25 No Change 0 $ 0 $ 0
Brown Brothers Harriman Co 2016-09-30 520 No Change 0 $ 0 $ 3
Private Advisor Group Llc 2016-09-30 12,484 Sold Some -32 $ -0 $ 89
Legal General Group Plc 2016-09-30 74,952 Sold Some -37 $ -0 $ 534
Advisor Group Inc 2016-09-30 15,564 Sold Some -292 $ -2 $ 110
Baird Financial Group Inc 2016-09-30 63,680 Sold Some -500 $ -3 $ 454
Checchi Capital Advisers Llc 2016-09-30 0 Sold All -664 $ -4 $ 0
Msi Financial Services Inc 2016-09-30 1,408 Sold Some -830 $ -5 $ 10
Investors Capital Advisory Services 2016-06-30 14,559 Sold Some -1,007 $ -5 $ 86
Cable Hill Partners Llc 2016-09-30 82 Sold Some -916 $ -6 $ 0
Blackrock Japan Co Ltd 2016-09-30 0 Sold All -1,102 $ -7 $ 0
Pnc Financial Services Group Inc 2016-09-30 0 Sold All -1,963 $ -13 $ 0
Anchor Capital Advisors Llc 2016-09-30 72,843 Sold Some -2,140 $ -15 $ 519
Evanston Investments Inc Dba Evanston Advisors 2016-09-30 381,330 Sold Some -3,329 $ -23 $ 2,718
Oxbow Advisors Llc 2016-09-30 279,945 Sold Some -3,730 $ -26 $ 1,996
Graybill Bartz Assoc Ltd 2016-09-30 366,890 Sold Some -3,775 $ -26 $ 2,615
Envestnet Asset Management Inc 2016-09-30 6,891 Sold Some -3,915 $ -27 $ 49
Tlp Group Llc 2016-09-30 75,443 Sold Some -5,000 $ -35 $ 537
Gotham Asset Management Llc 2016-09-30 48,455 Sold Some -8,614 $ -61 $ 345
Proshare Advisors Llc 2016-09-30 78,653 Sold Some -10,409 $ -74 $ 560
Teacher Retirement System Of Texas 2016-09-30 36,441 Sold Some -11,058 $ -78 $ 259
Raymond James Financial Services Advisors Inc 2016-09-30 11,797 Sold Some -11,155 $ -79 $ 84
Gargoyle Investment Advisor L L C 2016-09-30 122,274 Sold Some -11,593 $ -82 $ 871
Advisors Capital Management Llc 2016-09-30 275,304 Sold Some -12,153 $ -86 $ 1,962
Jane Street Group Llc 2016-09-30 0 Sold All -12,190 $ -86 $ 0
Group One Trading L P 2016-09-30 0 Sold All -13,645 $ -97 $ 0
Swiss National Bank 2016-09-30 549,500 Sold Some -16,400 $ -116 $ 3,917
Us Bancorp De 2016-09-30 1,433,113 Sold Some -16,900 $ -120 $ 10,218
Td Asset Management Inc 2016-09-30 0 Sold All -17,100 $ -121 $ 0
Stevens Capital Management Lp 2016-09-30 0 Sold All -19,174 $ -136 $ 0
Netols Asset Management Inc 2016-09-30 1,105,394 Sold Some -22,917 $ -163 $ 7,881
Bluecrest Capital Management Ltd 2016-09-30 10,901 Sold Some -22,947 $ -163 $ 77
Harvest Capital Strategies Llc 2016-09-30 0 Sold All -24,500 $ -174 $ 0
Two Sigma Securities Llc 2016-09-30 0 Sold All -24,505 $ -174 $ 0
Ellington Management Group Llc 2016-09-30 0 Sold All -25,900 $ -184 $ 0
Seven Eight Capital Llc 2016-09-30 182,700 Sold Some -29,100 $ -207 $ 1,302
Deprince Race Zollo Inc 2016-09-30 0 Sold All -30,000 $ -213 $ 0
Campbell Co Investment Adviser Llc 2016-09-30 0 Sold All -32,056 $ -228 $ 0
Tfs Capital Llc 2016-09-30 0 Sold All -34,221 $ -243 $ 0
Laurion Capital Management Lp 2016-09-30 0 Sold All -40,300 $ -287 $ 0
Tealwood Asset Management Inc 2016-09-30 302,306 Sold Some -40,585 $ -289 $ 2,155
Tower Research Capital Llc Trc 2016-09-30 2,624 Sold Some -42,858 $ -305 $ 18
Commonwealth Equity Services Inc 2016-09-30 155,890 Sold Some -47,390 $ -337 $ 1,111
Endeavour Capital Advisors Inc 2016-09-30 3,211,853 Sold Some -57,094 $ -407 $ 22,900
Cubist Systematic Strategies Llc 2016-09-30 90,581 Sold Some -57,681 $ -411 $ 645
Trexquant Investment Lp 2016-09-30 172,895 Sold Some -64,594 $ -460 $ 1,232
Cornerstone Capital Management Holdings Llc 2016-09-30 0 Sold All -76,600 $ -546 $ 0
Hightower Advisors Llc 2016-09-30 141,890 Sold Some -77,520 $ -552 $ 1,011
New Generation Advisors Llc 2016-09-30 682,683 Sold Some -78,471 $ -559 $ 4,867
Pdt Partners Llc 2016-09-30 0 Sold All -80,048 $ -570 $ 0
Mirae Asset Global Investments Co Ltd 2016-09-30 0 Sold All -94,290 $ -672 $ 0
Tudor Investment Corp Et Al 2016-09-30 36,595 Sold Some -98,330 $ -701 $ 260
Limestone Value Partners Llc 2016-09-30 632,430 Sold Some -100,000 $ -713 $ 4,509
Jbf Capital Inc 2016-09-30 439,300 Sold Some -100,000 $ -713 $ 3,132
Algebris Investments Uk Llp 2016-09-30 299,200 Sold Some -102,700 $ -732 $ 2,133
Otter Creek Advisors Llc 2016-09-30 602,173 Sold Some -109,077 $ -777 $ 4,293
Capstone Investment Advisors Llc 2016-09-30 0 Sold All -123,216 $ -878 $ 0
Fifth Third Bancorp 2016-09-30 172,153 Sold Some -145,292 $ -1,035 $ 1,227
Squarepoint Ops Llc 2016-09-30 0 Sold All -151,070 $ -1,077 $ 0
Airain Ltd 2016-09-30 0 Sold All -158,664 $ -1,131 $ 0
Emerald Acquisition Ltd 2016-09-30 934,690 Sold Some -175,616 $ -1,252 $ 6,664
Saba Capital Management L P 2016-09-30 517,448 Sold Some -181,618 $ -1,294 $ 3,689
Capital Fund Management S A 2016-09-30 1,325,875 Sold Some -186,628 $ -1,330 $ 9,453
Kbc Group Nv 2016-09-30 89,265 Sold Some -234,829 $ -1,674 $ 636
Zweig-Dimenna Associates Llc 2016-09-30 0 Sold All -250,000 $ -1,782 $ 0
Highbridge Capital Management Llc 2016-09-30 12,100 Sold Some -289,913 $ -2,067 $ 86
Eagle Asset Management Inc 2016-09-30 0 Sold All -294,218 $ -2,097 $ 0
Sg Americas Securities Llc 2016-09-30 57,794 Sold Some -294,882 $ -2,102 $ 412
Interval Partners Lp 2016-09-30 112,420 Sold Some -297,530 $ -2,121 $ 801
Jacobs Asset Management Llc 2016-09-30 0 Sold All -301,000 $ -2,146 $ 0
Seawolf Capital Llc 2016-09-30 196,900 Sold Some -333,900 $ -2,380 $ 1,403
Capital Returns Management Llc 2016-09-30 2,533,147 Sold Some -342,100 $ -2,439 $ 18,061
Qs Investors Llc 2016-09-30 1,189,453 Sold Some -403,218 $ -2,874 $ 8,480
Serengeti Asset Management Lp 2016-09-30 0 Sold All -500,000 $ -3,565 $ 0
Ontario Teachers Pension Plan Board 2016-09-30 0 Sold All -514,058 $ -3,665 $ 0
Cobalt Capital Management Inc 2016-09-30 746,825 Sold Some -579,963 $ -4,135 $ 5,324
Marshall Wace Llp 2016-09-30 6,291,045 Sold Some -1,011,533 $ -7,212 $ 44,855
Platinum Investment Management Ltd 2016-09-30 8,795,975 Sold Some -1,301,329 $ -9,278 $ 62,715
Archer Capital Management L P 2016-09-30 2,513,509 Sold Some -1,354,600 $ -9,658 $ 17,921
Fiera Capital Corp 2016-09-30 523,350 Sold Some -1,796,818 $ -12,811 $ 3,731
Three Corner Global Investors Lp 2016-09-30 0 Sold All -2,386,100 $ -17,012 $ 0
Parus Finance Uk Ltd 2016-09-30 3,556,314 Sold Some -2,726,130 $ -19,437 $ 25,356
Ejf Capital Llc 2016-09-30 0 Sold All -4,558,489 $ -32,502 $ 0
Chartwell Investment Partners Llc 2016-09-30 0 Sold All -5,962,323 $ -42,511 $ 0